Time;durP1;ratioP1;P1;durP2;ratioP2;P2;SDS_P1;SDS_P2;PMS_P1;PMS_P2;Temp;Humidity;BMP_temperature;BMP_pressure;BME280_temperature;BME280_humidity;BME280_pressure;Samples;Min_cycle;Max_cycle;Signal;HPM_P1;HPM_P2
2022/03/20 00:01:03;;;;;;;33.17;19.65;;;5.20;97.30;;;;;;4917041;29;20024;-49
2022/03/20 00:03:33;;;;;;;29.27;19.55;;;5.20;97.10;;;;;;4915621;29;20024;-53
2022/03/20 00:05:59;;;;;;;27.20;17.85;;;5.20;97.10;;;;;;4917124;29;20024;-49
2022/03/20 00:08:25;;;;;;;25.05;18.05;;;5.20;97.00;;;;;;4916795;29;20028;-47
2022/03/20 00:10:53;;;;;;;25.42;18.90;;;5.10;97.00;;;;;;4917039;29;20087;-53
2022/03/20 00:13:21;;;;;;;29.23;19.58;;;5.20;97.00;;;;;;4916826;29;20028;-53
2022/03/20 00:15:49;;;;;;;25.55;18.40;;;5.20;96.90;;;;;;4916884;29;20459;-43
2022/03/20 00:18:17;;;;;;;26.83;18.42;;;5.10;96.80;;;;;;4916422;29;20484;-47
2022/03/20 00:20:45;;;;;;;34.35;17.67;;;5.10;96.80;;;;;;4916884;29;20028;-47
2022/03/20 00:23:12;;;;;;;26.35;17.58;;;5.10;96.70;;;;;;4916258;29;20384;-48
2022/03/20 00:25:44;;;;;;;31.50;18.27;;;5.00;96.70;;;;;;4916471;29;20028;-49
2022/03/20 00:28:11;;;;;;;25.35;17.88;;;5.10;96.60;;;;;;4916377;29;20059;-53
2022/03/20 00:30:37;;;;;;;28.58;18.05;;;5.10;96.60;;;;;;4916617;29;20025;-47
2022/03/20 00:33:03;;;;;;;26.10;17.98;;;5.10;96.50;;;;;;4915137;29;20096;-46
2022/03/20 00:35:29;;;;;;;28.35;18.17;;;5.10;96.30;;;;;;4916505;29;20028;-49
2022/03/20 00:37:55;;;;;;;29.08;18.92;;;5.10;96.20;;;;;;4916075;29;20099;-43
2022/03/20 00:40:21;;;;;;;23.80;17.73;;;5.10;96.10;;;;;;4916375;29;20111;-51
2022/03/20 00:42:46;;;;;;;26.05;18.00;;;5.10;96.20;;;;;;4916225;29;20092;-51
2022/03/20 00:45:12;;;;;;;31.77;17.73;;;5.10;96.10;;;;;;4916393;29;20029;-48
2022/03/20 00:47:38;;;;;;;34.00;18.27;;;5.00;96.10;;;;;;4915862;29;20029;-49
2022/03/20 00:50:04;;;;;;;27.80;17.25;;;5.00;96.00;;;;;;4916289;29;20067;-44
2022/03/20 00:52:32;;;;;;;31.95;18.17;;;5.00;96.10;;;;;;4916075;29;20024;-43
2022/03/20 00:54:58;;;;;;;26.35;17.10;;;4.90;96.10;;;;;;4916303;29;20032;-49
2022/03/20 00:57:23;;;;;;;27.80;17.88;;;4.90;96.00;;;;;;4915681;29;20028;-50
2022/03/20 00:59:49;;;;;;;28.80;18.15;;;4.90;96.00;;;;;;4916110;29;20040;-51
2022/03/20 01:02:15;;;;;;;27.48;17.98;;;4.80;96.00;;;;;;4914654;29;20024;-44
2022/03/20 01:04:41;;;;;;;28.13;17.73;;;4.80;95.90;;;;;;4915882;29;20283;-44
2022/03/20 01:07:06;;;;;;;26.67;17.75;;;4.70;95.90;;;;;;4915557;29;20032;-48
2022/03/20 01:09:32;;;;;;;25.30;16.33;;;4.70;95.90;;;;;;4915445;29;20093;-49
2022/03/20 01:11:58;;;;;;;30.58;18.50;;;4.70;96.00;;;;;;4915714;29;20040;-51
2022/03/20 01:14:25;;;;;;;28.77;17.02;;;4.70;95.80;;;;;;4915908;29;20500;-48
2022/03/20 01:16:52;;;;;;;27.95;17.40;;;4.80;95.70;;;;;;4915731;29;20078;-47
2022/03/20 01:19:17;;;;;;;24.75;16.30;;;4.80;95.60;;;;;;4915651;29;20028;-50
2022/03/20 01:21:43;;;;;;;25.90;15.73;;;4.70;95.50;;;;;;4915679;29;20035;-48
2022/03/20 01:24:09;;;;;;;26.10;16.30;;;4.70;95.50;;;;;;4915884;29;20084;-49
2022/03/20 01:26:35;;;;;;;23.23;17.13;;;4.70;95.30;;;;;;4915639;29;20080;-49
2022/03/20 01:29:02;;;;;;;25.92;17.08;;;4.70;95.20;;;;;;4915387;29;20028;-47
2022/03/20 01:31:28;;;;;;;25.27;16.75;;;4.70;95.10;;;;;;4915521;29;20032;-49
2022/03/20 01:33:54;;;;;;;23.70;16.25;;;4.60;95.10;;;;;;4915618;29;20511;-46
2022/03/20 01:36:20;;;;;;;30.50;17.20;;;4.60;95.10;;;;;;4915617;29;20181;-48
2022/03/20 01:38:46;;;;;;;29.00;18.08;;;4.60;94.90;;;;;;4915144;29;20028;-50
2022/03/20 01:41:12;;;;;;;28.05;15.35;;;4.70;94.70;;;;;;4915623;29;20020;-48
2022/03/20 01:43:38;;;;;;;27.38;16.83;;;4.60;94.70;;;;;;4915776;29;20036;-49
2022/03/20 01:46:04;;;;;;;28.02;17.23;;;4.70;94.40;;;;;;4915425;29;20392;-48
2022/03/20 01:48:29;;;;;;;28.48;16.42;;;4.70;94.30;;;;;;4915016;29;20036;-53
2022/03/20 01:50:55;;;;;;;31.75;16.70;;;4.60;94.30;;;;;;4915586;29;20028;-53
2022/03/20 01:53:21;;;;;;;22.50;14.95;;;4.60;94.20;;;;;;4913891;29;20063;-47
2022/03/20 01:55:46;;;;;;;35.33;18.52;;;4.60;94.20;;;;;;4915358;29;20037;-49
2022/03/20 01:58:14;;;;;;;30.27;18.40;;;4.60;94.20;;;;;;4914846;29;20055;-50
2022/03/20 02:00:40;;;;;;;29.65;17.05;;;4.60;94.00;;;;;;4917525;29;20384;-51
2022/03/20 02:03:06;;;;;;;24.55;16.70;;;4.60;93.90;;;;;;4918807;29;20096;-48
2022/03/20 02:05:32;;;;;;;30.42;17.85;;;4.60;93.80;;;;;;4914951;29;20028;-47
2022/03/20 02:07:59;;;;;;;26.05;15.60;;;4.60;93.60;;;;;;4913972;29;20104;-48
2022/03/20 02:10:35;;;;;;;23.70;15.13;;;4.60;93.60;;;;;;4914713;29;20388;-50
2022/03/20 02:13:01;;;;;;;27.90;15.95;;;4.60;93.40;;;;;;4914600;29;20106;-51
2022/03/20 02:15:26;;;;;;;24.75;15.70;;;4.60;93.50;;;;;;4914845;29;20100;-51
2022/03/20 02:17:52;;;;;;;28.00;15.52;;;4.60;93.40;;;;;;4914562;29;20044;-45
2022/03/20 02:20:20;;;;;;;34.08;16.48;;;4.60;93.40;;;;;;4915372;29;20038;-46
2022/03/20 02:22:46;;;;;;;28.55;16.17;;;4.50;93.40;;;;;;4915183;29;20072;-47
2022/03/20 02:25:14;;;;;;;26.27;16.75;;;4.60;93.40;;;;;;4915464;29;20024;-47
2022/03/20 02:27:40;;;;;;;25.25;16.10;;;4.60;93.30;;;;;;4913650;29;20469;-46
2022/03/20 02:30:13;;;;;;;24.70;15.80;;;4.60;92.90;;;;;;4914789;29;20056;-49
2022/03/20 02:32:41;;;;;;;25.33;15.88;;;4.60;92.90;;;;;;4914261;29;20032;-47
2022/03/20 02:35:11;;;;;;;21.90;14.68;;;4.60;92.80;;;;;;4914509;29;20024;-47
2022/03/20 02:37:39;;;;;;;28.77;17.08;;;4.60;92.80;;;;;;4914366;29;20372;-47
2022/03/20 02:40:05;;;;;;;25.67;16.05;;;4.60;92.80;;;;;;4914337;29;20028;-47
2022/03/20 02:42:31;;;;;;;29.80;16.55;;;4.60;92.70;;;;;;4914500;29;20506;-50
2022/03/20 02:45:04;;;;;;;27.48;16.70;;;4.60;92.60;;;;;;4914703;29;20025;-46
2022/03/20 02:47:34;;;;;;;23.75;16.27;;;4.60;92.50;;;;;;4915432;29;20054;-47
2022/03/20 02:50:09;;;;;;;22.67;15.80;;;4.60;92.40;;;;;;4918043;29;20448;-48
2022/03/20 02:52:46;;;;;;;31.80;17.30;;;4.60;92.30;;;;;;4916190;29;20399;-47
2022/03/20 02:55:23;;;;;;;25.50;16.83;;;4.60;92.30;;;;;;4932107;23;20059;-44
2022/03/20 02:57:51;;;;;;;27.50;17.10;;;4.60;92.20;;;;;;4933224;29;20034;-44
2022/03/20 03:00:18;;;;;;;25.23;17.02;;;4.60;92.40;;;;;;4936443;29;20526;-47
2022/03/20 03:02:45;;;;;;;26.40;15.85;;;4.50;92.40;;;;;;4936470;29;20020;-43
2022/03/20 03:05:14;;;;;;;23.38;16.08;;;4.50;92.40;;;;;;4931449;29;20024;-44
2022/03/20 03:13:09;;;;;;;28.73;17.30;;;4.60;92.00;;;;;;4915076;29;20040;-46
2022/03/20 03:15:34;;;;;;;25.90;16.30;;;4.60;91.90;;;;;;4917150;29;20448;-45
2022/03/20 03:18:00;;;;;;;26.08;16.55;;;4.50;91.80;;;;;;4917633;29;20076;-42
2022/03/20 03:20:26;;;;;;;28.48;16.40;;;4.60;91.60;;;;;;4917688;29;20028;-44
2022/03/20 03:22:52;;;;;;;26.08;15.75;;;4.60;91.70;;;;;;4917287;29;20076;-48
2022/03/20 03:25:18;;;;;;;26.38;16.25;;;4.70;91.60;;;;;;4917188;29;20025;-47
2022/03/20 03:27:44;;;;;;;27.48;17.17;;;4.70;91.60;;;;;;4916888;29;20025;-49
2022/03/20 03:30:12;;;;;;;27.60;17.92;;;4.60;91.60;;;;;;4914348;29;20041;-47
2022/03/20 03:32:40;;;;;;;26.55;16.50;;;4.70;91.50;;;;;;4916348;29;20044;-47
2022/03/20 03:37:54;;;;;;;29.63;16.75;;;4.70;91.50;;;;;;4917042;29;20035;-42
2022/03/20 03:40:19;;;;;;;27.88;17.88;;;4.70;91.70;;;;;;4917292;29;20476;-45
2022/03/20 03:42:45;;;;;;;40.35;17.80;;;4.60;91.60;;;;;;4917365;29;20020;-45
2022/03/20 03:45:11;;;;;;;29.60;17.90;;;4.60;91.70;;;;;;4917111;29;20024;-44
2022/03/20 03:47:36;;;;;;;27.92;17.55;;;4.60;91.80;;;;;;4916902;29;20087;-44
2022/03/20 03:50:02;;;;;;;29.00;17.55;;;4.60;92.00;;;;;;4917172;29;20389;-50
2022/03/20 03:52:28;;;;;;;29.83;17.35;;;4.60;92.00;;;;;;4917202;29;20028;-44
2022/03/20 03:54:53;;;;;;;30.75;17.00;;;4.60;91.90;;;;;;4916942;29;20029;-45
2022/03/20 03:57:19;;;;;;;28.52;18.10;;;4.60;91.90;;;;;;4915572;29;20036;-47
2022/03/20 03:59:45;;;;;;;27.25;17.30;;;4.60;91.90;;;;;;4916809;29;20043;-44
2022/03/20 04:02:12;;;;;;;32.15;17.25;;;4.60;91.90;;;;;;4917064;29;20527;-47
2022/03/20 04:04:38;;;;;;;34.97;18.10;;;4.60;91.90;;;;;;4917048;29;20027;-44
2022/03/20 04:07:04;;;;;;;26.40;17.73;;;4.60;91.90;;;;;;4916383;29;20491;-46
2022/03/20 04:09:30;;;;;;;30.42;18.85;;;4.70;92.00;;;;;;4916258;29;20028;-45
2022/03/20 04:11:56;;;;;;;25.90;17.10;;;4.70;91.90;;;;;;4916652;29;20540;-50
2022/03/20 04:14:22;;;;;;;30.02;18.08;;;4.70;91.90;;;;;;4916869;29;20040;-44
2022/03/20 04:16:48;;;;;;;29.75;18.38;;;4.70;92.20;;;;;;4916428;29;20028;-43
2022/03/20 04:19:13;;;;;;;30.98;18.65;;;4.70;91.90;;;;;;4916599;29;20444;-48
2022/03/20 04:21:39;;;;;;;33.20;18.92;;;4.70;91.80;;;;;;4916627;29;20032;-45
2022/03/20 04:24:07;;;;;;;29.00;17.75;;;4.70;91.90;;;;;;4916483;29;20028;-45
2022/03/20 04:26:34;;;;;;;32.08;19.33;;;4.70;91.90;;;;;;4916292;29;20024;-44
2022/03/20 04:29:00;;;;;;;29.75;18.83;;;4.70;91.90;;;;;;4916158;29;20044;-45
2022/03/20 04:31:25;;;;;;;35.67;19.98;;;4.70;92.00;;;;;;4916357;29;20032;-43
2022/03/20 04:33:56;;;;;;;31.83;18.90;;;4.70;92.10;;;;;;4916357;29;20039;-46
2022/03/20 04:36:27;;;;;;;32.03;18.88;;;4.70;92.20;;;;;;4916149;29;20051;-44
2022/03/20 04:38:59;;;;;;;30.55;18.33;;;4.90;92.10;;;;;;4916012;29;20038;-45
2022/03/20 04:41:25;;;;;;;30.23;19.42;;;4.80;92.10;;;;;;4916261;29;20229;-45
2022/03/20 04:43:51;;;;;;;33.60;19.63;;;4.90;92.10;;;;;;4916121;29;20047;-41
2022/03/20 04:46:17;;;;;;;30.38;19.23;;;4.80;92.40;;;;;;4915850;29;20051;-44
2022/03/20 04:59:40;;;;;;;32.40;19.55;;;4.70;93.20;;;;;;4915944;29;20062;-44
2022/03/20 05:02:05;;;;;;;31.20;19.42;;;4.60;93.30;;;;;;4915785;29;20028;-45
2022/03/20 05:04:31;;;;;;;35.00;20.73;;;4.60;93.40;;;;;;4915892;29;20056;-46
2022/03/20 05:06:56;;;;;;;31.05;20.55;;;4.60;93.40;;;;;;4915326;29;20020;-44
2022/03/20 05:14:50;;;;;;;30.50;19.42;;;4.70;93.30;;;;;;4915653;29;20052;-48
2022/03/20 05:17:16;;;;;;;33.60;22.35;;;4.70;93.50;;;;;;4914044;29;20028;-49
2022/03/20 05:19:42;;;;;;;36.88;21.58;;;4.70;93.50;;;;;;4915656;29;20111;-46
2022/03/20 05:22:10;;;;;;;33.25;21.55;;;4.70;93.50;;;;;;4915398;29;20028;-45
2022/03/20 05:24:36;;;;;;;29.30;19.42;;;4.70;93.60;;;;;;4915611;29;20025;-45
2022/03/20 05:27:03;;;;;;;33.63;20.63;;;4.70;93.70;;;;;;4915120;29;20083;-45
2022/03/20 05:29:28;;;;;;;37.55;22.38;;;4.70;93.90;;;;;;4915560;29;20101;-45
2022/03/20 05:31:54;;;;;;;32.50;19.95;;;4.70;94.10;;;;;;4915388;29;20511;-47
2022/03/20 05:34:20;;;;;;;40.03;21.13;;;4.70;94.10;;;;;;4915520;29;20054;-45
2022/03/20 05:36:46;;;;;;;38.08;24.02;;;4.70;94.00;;;;;;4915088;29;20114;-47
2022/03/20 05:39:12;;;;;;;34.75;20.10;;;4.70;94.10;;;;;;4915275;29;20060;-44
2022/03/20 05:41:47;;;;;;;36.25;21.80;;;4.80;94.10;;;;;;4915253;29;20055;-43
2022/03/20 05:44:24;;;;;;;34.50;21.23;;;4.80;94.00;;;;;;4915501;29;20122;-48
2022/03/20 05:46:52;;;;;;;38.70;21.92;;;4.90;94.00;;;;;;4915152;29;20277;-44
2022/03/20 05:49:19;;;;;;;34.28;21.38;;;4.90;93.90;;;;;;4915309;29;20107;-44
2022/03/20 05:51:46;;;;;;;35.75;22.27;;;5.00;93.80;;;;;;4915243;29;20088;-49
2022/03/20 05:54:12;;;;;;;39.08;23.02;;;5.10;93.80;;;;;;4915230;29;20088;-46
2022/03/20 05:59:22;;;;;;;35.78;21.83;;;5.00;93.80;;;;;;4915417;29;20043;-45
2022/03/20 06:01:50;;;;;;;35.90;23.23;;;5.00;93.90;;;;;;4914960;29;20480;-44
2022/03/20 06:04:15;;;;;;;41.03;23.17;;;5.10;94.00;;;;;;4915525;29;20099;-47
2022/03/20 06:06:42;;;;;;;45.78;22.38;;;5.10;93.90;;;;;;4914973;29;20103;-48
2022/03/20 06:09:08;;;;;;;36.10;22.55;;;5.20;94.00;;;;;;4914761;29;20028;-45
2022/03/20 06:11:34;;;;;;;34.67;22.02;;;5.20;94.10;;;;;;4915115;29;20043;-49
2022/03/20 06:14:00;;;;;;;36.28;21.80;;;5.20;94.10;;;;;;4915145;29;20451;-46
2022/03/20 06:16:26;;;;;;;35.85;22.15;;;5.20;94.20;;;;;;4914911;29;20028;-46
2022/03/20 06:18:52;;;;;;;37.33;22.80;;;5.20;94.20;;;;;;4913501;29;20035;-49
2022/03/20 06:21:18;;;;;;;41.03;23.38;;;5.30;94.20;;;;;;4917494;29;20020;-45
2022/03/20 06:23:45;;;;;;;33.03;21.65;;;5.30;94.10;;;;;;4918892;29;20107;-51
2022/03/20 06:26:11;;;;;;;39.10;22.38;;;5.40;94.10;;;;;;4918498;29;20027;-47
2022/03/20 06:28:40;;;;;;;37.75;23.75;;;5.40;94.10;;;;;;4918374;29;20035;-44
2022/03/20 06:31:09;;;;;;;36.95;22.85;;;5.40;94.20;;;;;;4918601;29;20091;-50
2022/03/20 06:33:35;;;;;;;43.53;25.45;;;5.40;94.20;;;;;;4918506;29;20025;-47
2022/03/20 06:36:01;;;;;;;41.05;22.33;;;5.40;94.40;;;;;;4918443;29;20099;-45
2022/03/20 06:38:26;;;;;;;43.97;24.38;;;5.50;94.50;;;;;;4918163;29;20080;-45
2022/03/20 06:40:52;;;;;;;41.00;23.25;;;5.40;94.50;;;;;;4918872;29;20043;-48
2022/03/20 06:43:17;;;;;;;36.88;23.15;;;5.50;94.60;;;;;;4918330;29;20480;-45
2022/03/20 06:45:43;;;;;;;39.95;22.92;;;5.50;94.60;;;;;;4918188;29;20091;-46
2022/03/20 06:48:08;;;;;;;36.00;23.08;;;5.60;94.50;;;;;;4918024;29;20036;-48
2022/03/20 06:50:34;;;;;;;47.00;26.85;;;5.60;94.70;;;;;;4918298;29;20087;-48
2022/03/20 06:53:04;;;;;;;39.65;24.67;;;5.60;94.60;;;;;;4918223;29;20111;-47
2022/03/20 06:55:31;;;;;;;38.85;24.08;;;5.60;94.70;;;;;;4918058;29;20123;-46
2022/03/20 06:58:00;;;;;;;36.72;22.65;;;5.60;94.80;;;;;;4917918;29;20059;-49
2022/03/20 07:00:28;;;;;;;41.30;25.35;;;5.70;94.80;;;;;;4919056;29;20461;-44
2022/03/20 07:02:54;;;;;;;38.15;23.88;;;5.80;95.00;;;;;;4922652;29;20028;-46
2022/03/20 07:05:20;;;;;;;40.97;25.08;;;5.80;95.00;;;;;;4919002;29;20067;-47
2022/03/20 07:07:46;;;;;;;38.67;23.35;;;5.80;95.00;;;;;;4918234;29;20029;-45
2022/03/20 07:10:13;;;;;;;39.30;22.95;;;5.90;95.00;;;;;;4920914;29;20032;-44
2022/03/20 07:12:39;;;;;;;35.67;23.33;;;6.00;95.00;;;;;;4920694;29;20111;-46
2022/03/20 07:15:05;;;;;;;33.63;23.35;;;6.00;94.80;;;;;;4918443;29;20059;-46
2022/03/20 07:17:33;;;;;;;34.38;22.83;;;6.10;94.80;;;;;;4918210;29;20440;-45
2022/03/20 07:19:59;;;;;;;38.70;24.38;;;6.20;94.50;;;;;;4918115;29;20024;-44
2022/03/20 07:22:26;;;;;;;39.13;23.48;;;6.20;94.40;;;;;;4918290;29;20035;-46
2022/03/20 07:24:52;;;;;;;39.08;24.50;;;6.20;94.50;;;;;;4917944;29;20036;-46
2022/03/20 07:30:03;;;;;;;35.40;23.33;;;6.30;94.60;;;;;;4919744;29;20035;-43
2022/03/20 07:32:29;;;;;;;36.78;23.60;;;6.40;94.50;;;;;;4918648;29;20036;-44
2022/03/20 07:34:54;;;;;;;37.55;24.35;;;6.50;94.50;;;;;;4919137;29;20392;-44
2022/03/20 07:37:21;;;;;;;38.47;23.48;;;6.50;94.30;;;;;;4916099;29;20044;-46
2022/03/20 07:39:51;;;;;;;37.75;24.13;;;6.60;93.90;;;;;;4917658;29;20035;-45
2022/03/20 07:42:18;;;;;;;44.33;25.23;;;6.70;93.90;;;;;;4918047;29;20043;-46
2022/03/20 07:44:45;;;;;;;39.17;23.77;;;6.80;93.70;;;;;;4917453;29;20036;-42
2022/03/20 07:47:21;;;;;;;40.00;24.75;;;6.90;93.50;;;;;;4917065;29;20103;-47
2022/03/20 07:49:48;;;;;;;37.78;23.92;;;7.00;93.10;;;;;;4917437;29;20111;-47
2022/03/20 07:52:14;;;;;;;39.80;24.75;;;7.10;92.70;;;;;;4917223;29;20028;-45
2022/03/20 07:54:40;;;;;;;38.83;24.15;;;7.50;92.60;;;;;;4917261;29;20118;-45
2022/03/20 07:57:07;;;;;;;34.90;24.08;;;7.90;91.90;;;;;;4915501;29;20095;-44
2022/03/20 07:59:34;;;;;;;41.03;23.05;;;8.10;91.30;;;;;;4917001;29;20460;-47
2022/03/20 08:01:59;;;;;;;38.65;23.60;;;8.20;91.00;;;;;;4917057;29;20029;-47
2022/03/20 08:04:25;;;;;;;39.53;25.55;;;8.30;90.60;;;;;;4916887;29;20369;-48
2022/03/20 08:06:50;;;;;;;38.03;23.60;;;8.20;90.80;;;;;;4916687;29;20039;-46
2022/03/20 08:09:16;;;;;;;39.47;25.40;;;8.20;90.90;;;;;;4916179;29;20091;-46
2022/03/20 08:11:42;;;;;;;40.50;24.00;;;8.10;90.80;;;;;;4916906;29;20032;-44
2022/03/20 08:14:08;;;;;;;37.75;25.30;;;8.00;90.80;;;;;;4916967;29;20056;-44
2022/03/20 08:16:37;;;;;;;36.42;24.55;;;8.00;91.20;;;;;;4916896;29;20036;-45
2022/03/20 08:19:02;;;;;;;40.42;24.88;;;8.00;91.10;;;;;;4916597;29;20031;-45
2022/03/20 08:21:28;;;;;;;38.33;24.73;;;8.10;91.00;;;;;;4916931;29;20506;-46
2022/03/20 08:23:54;;;;;;;43.85;26.10;;;8.30;91.10;;;;;;4916712;29;20059;-45
2022/03/20 08:26:20;;;;;;;38.70;24.67;;;8.50;91.00;;;;;;4916380;29;20056;-48
2022/03/20 08:28:46;;;;;;;36.88;24.55;;;8.80;90.70;;;;;;4916238;29;20032;-44
2022/03/20 08:31:12;;;;;;;39.00;24.83;;;8.90;89.90;;;;;;4916682;29;20395;-49
2022/03/20 08:33:40;;;;;;;39.40;23.85;;;9.00;89.60;;;;;;4916406;29;20028;-47
2022/03/20 08:36:06;;;;;;;45.13;24.70;;;9.10;89.10;;;;;;4916277;29;20036;-47
2022/03/20 08:38:31;;;;;;;37.55;25.05;;;9.10;87.50;;;;;;4916058;29;20237;-45
2022/03/20 08:40:57;;;;;;;34.83;22.48;;;9.00;88.00;;;;;;4916418;29;20028;-45
2022/03/20 08:43:23;;;;;;;35.42;23.80;;;9.10;88.60;;;;;;4915712;29;20024;-47
2022/03/20 08:45:49;;;;;;;43.72;25.08;;;9.20;88.70;;;;;;4916080;29;20488;-50
2022/03/20 08:48:15;;;;;;;35.67;25.25;;;9.30;88.00;;;;;;4915851;29;20024;-43
2022/03/20 08:50:44;;;;;;;39.63;24.17;;;9.50;87.00;;;;;;4916210;29;20028;-50
2022/03/20 08:53:10;;;;;;;38.72;25.70;;;9.50;85.70;;;;;;4915975;29;20021;-46
2022/03/20 08:55:36;;;;;;;40.38;25.00;;;9.50;85.80;;;;;;4915804;29;20036;-45
2022/03/20 08:58:04;;;;;;;39.17;25.65;;;9.60;86.20;;;;;;4952211;23;20047;-44
2022/03/20 09:00:32;;;;;;;37.22;24.08;;;9.70;85.90;;;;;;4935002;29;20027;-44
2022/03/20 09:02:57;;;;;;;39.15;23.48;;;9.90;85.40;;;;;;4935330;29;20103;-47
2022/03/20 09:05:23;;;;;;;40.45;23.33;;;10.10;84.50;;;;;;4933707;29;20110;-45
2022/03/20 09:07:50;;;;;;;35.58;24.42;;;10.40;83.70;;;;;;4918914;29;20032;-46
2022/03/20 09:10:16;;;;;;;35.35;24.60;;;11.00;82.40;;;;;;4914797;29;20123;-46
2022/03/20 09:12:43;;;;;;;35.65;24.20;;;11.80;80.10;;;;;;4916411;29;20039;-43
2022/03/20 09:15:14;;;;;;;33.03;22.85;;;12.50;78.10;;;;;;4916060;29;20507;-49
2022/03/20 09:20:25;;;;;;;28.35;22.13;;;13.40;72.70;;;;;;4915913;29;20062;-47
2022/03/20 09:22:51;;;;;;;32.88;23.70;;;13.70;72.60;;;;;;4914686;29;20477;-51
2022/03/20 09:25:16;;;;;;;34.92;23.70;;;14.40;71.90;;;;;;4914396;29;20087;-45
2022/03/20 09:27:42;;;;;;;34.25;24.95;;;14.80;69.70;;;;;;4915520;29;20028;-47
2022/03/20 09:30:09;;;;;;;34.30;23.67;;;15.30;67.90;;;;;;4915770;29;20028;-47
2022/03/20 09:32:34;;;;;;;35.20;25.45;;;16.00;67.00;;;;;;4915731;29;20028;-49
2022/03/20 09:35:00;;;;;;;34.10;22.35;;;16.20;64.60;;;;;;4914194;29;20393;-47
2022/03/20 09:37:26;;;;;;;32.28;22.73;;;16.30;64.60;;;;;;4915310;29;20064;-51
2022/03/20 09:39:51;;;;;;;33.78;24.85;;;16.50;63.80;;;;;;4915598;29;20035;-45
2022/03/20 09:42:20;;;;;;;34.25;23.17;;;16.70;62.50;;;;;;4915529;29;20155;-47
2022/03/20 09:44:46;;;;;;;34.13;24.35;;;16.30;63.20;;;;;;4914213;29;20024;-50
2022/03/20 09:47:13;;;;;;;31.77;23.20;;;16.40;62.90;;;;;;4915285;29;20481;-50
2022/03/20 09:49:39;;;;;;;34.75;23.83;;;16.00;63.70;;;;;;4914346;29;20522;-45
2022/03/20 09:52:06;;;;;;;32.58;23.98;;;15.20;65.60;;;;;;4914455;29;20059;-43
2022/03/20 09:54:33;;;;;;;32.90;23.83;;;14.40;67.50;;;;;;4915477;29;20103;-47
2022/03/20 09:57:03;;;;;;;37.70;24.67;;;13.70;69.70;;;;;;4918894;29;20031;-47
2022/03/20 09:59:29;;;;;;;33.83;25.23;;;13.40;71.10;;;;;;4919336;29;20496;-47
2022/03/20 10:02:00;;;;;;;37.28;24.92;;;13.10;71.90;;;;;;4919534;29;20047;-42
2022/03/20 10:04:25;;;;;;;36.05;24.35;;;12.80;72.90;;;;;;4919451;29;20024;-45
2022/03/20 10:06:51;;;;;;;37.42;25.70;;;12.60;73.60;;;;;;4919038;29;20039;-50
2022/03/20 10:09:16;;;;;;;38.60;24.40;;;12.30;74.40;;;;;;4918896;29;20036;-47
2022/03/20 10:11:54;;;;;;;41.55;24.70;;;12.30;75.40;;;;;;4919324;29;20030;-54
2022/03/20 10:14:29;;;;;;;37.92;25.52;;;12.20;75.90;;;;;;4919259;29;20020;-49
2022/03/20 10:17:16;;;;;;;32.97;24.05;;;12.10;76.40;;;;;;4918862;29;20043;-49
2022/03/20 10:19:42;;;;;;;36.30;23.40;;;12.10;76.90;;;;;;4919047;29;20024;-48
2022/03/20 10:22:10;;;;;;;39.30;24.92;;;12.00;78.30;;;;;;4917363;29;20025;-49
2022/03/20 10:24:46;;;;;;;36.33;23.98;;;12.20;77.90;;;;;;4919374;29;20046;-48
2022/03/20 10:27:13;;;;;;;38.90;24.95;;;12.40;77.80;;;;;;4919004;29;20440;-46
2022/03/20 10:29:53;;;;;;;38.63;23.25;;;12.50;78.20;;;;;;4918956;29;20079;-53
2022/03/20 10:32:21;;;;;;;39.10;24.80;;;12.80;78.60;;;;;;4918912;29;20024;-50
2022/03/20 10:34:49;;;;;;;34.47;23.80;;;12.90;77.40;;;;;;4918906;29;20043;-48
2022/03/20 10:37:15;;;;;;;38.15;24.60;;;13.00;77.80;;;;;;4918391;29;20040;-49
2022/03/20 10:39:42;;;;;;;35.67;23.92;;;13.20;77.80;;;;;;4917456;29;20040;-48
2022/03/20 10:42:12;;;;;;;31.92;22.75;;;13.30;77.90;;;;;;4918840;29;20020;-46
2022/03/20 10:44:38;;;;;;;31.48;22.38;;;13.30;78.10;;;;;;4918584;29;20032;-47
2022/03/20 10:47:13;;;;;;;41.10;25.55;;;13.30;77.80;;;;;;4916845;29;20028;-46
2022/03/20 10:49:41;;;;;;;35.42;23.58;;;13.20;77.60;;;;;;4918495;29;20024;-46
2022/03/20 10:52:10;;;;;;;38.88;24.60;;;12.90;78.40;;;;;;4917176;29;20036;-50
2022/03/20 10:54:43;;;;;;;36.42;23.77;;;12.90;79.80;;;;;;4917007;29;20028;-46
2022/03/20 10:57:10;;;;;;;33.03;24.60;;;12.90;80.20;;;;;;4917909;29;20523;-49
2022/03/20 10:59:36;;;;;;;32.58;24.40;;;13.00;82.40;;;;;;4918094;29;20051;-46
2022/03/20 11:02:05;;;;;;;37.13;24.23;;;13.00;82.20;;;;;;4918403;29;20017;-45
2022/03/20 11:04:31;;;;;;;39.03;25.05;;;13.30;81.50;;;;;;4918196;29;20100;-49
2022/03/20 11:06:59;;;;;;;40.53;25.38;;;13.30;80.70;;;;;;4915998;29;20114;-48
2022/03/20 11:09:25;;;;;;;37.38;24.45;;;13.20;81.10;;;;;;4916591;29;20024;-51
2022/03/20 11:11:53;;;;;;;38.85;25.10;;;13.00;81.50;;;;;;4917945;29;20548;-48
2022/03/20 11:14:20;;;;;;;45.45;31.42;;;12.90;82.30;;;;;;4918528;29;20036;-43
2022/03/20 11:16:51;;;;;;;43.78;24.63;;;12.90;83.00;;;;;;4916367;29;20035;-43
2022/03/20 11:19:23;;;;;;;34.35;23.60;;;12.80;83.30;;;;;;4917545;29;20024;-45
2022/03/20 11:21:53;;;;;;;36.35;23.80;;;12.70;84.80;;;;;;4917413;29;20063;-48
2022/03/20 11:24:19;;;;;;;31.25;23.33;;;12.80;85.30;;;;;;4917628;29;20107;-48
2022/03/20 11:26:49;;;;;;;32.67;22.40;;;12.80;85.90;;;;;;4916854;29;20067;-53
2022/03/20 11:29:18;;;;;;;32.85;24.23;;;12.80;86.40;;;;;;4915949;29;20028;-48
2022/03/20 11:31:44;;;;;;;31.15;22.13;;;12.90;85.60;;;;;;4917187;29;20036;-46
2022/03/20 11:34:11;;;;;;;32.03;23.02;;;13.00;85.10;;;;;;4913633;29;20422;-49
2022/03/20 11:37:01;;;;;;;34.70;22.67;;;13.00;85.10;;;;;;4916826;29;20102;-50
2022/03/20 11:39:27;;;;;;;34.33;22.25;;;12.90;85.90;;;;;;4917286;29;20380;-49
2022/03/20 11:42:21;;;;;;;29.92;20.83;;;13.00;86.80;;;;;;4920886;29;20056;-48
2022/03/20 11:45:08;;;;;;;29.38;19.52;;;13.20;86.80;;;;;;4926966;29;20099;-48
2022/03/20 11:47:39;;;;;;;28.58;20.02;;;13.40;86.30;;;;;;4922508;29;20028;-44
2022/03/20 11:50:25;;;;;;;28.45;20.48;;;13.50;85.70;;;;;;4918463;29;20091;-49
2022/03/20 11:52:53;;;;;;;27.98;20.08;;;13.40;86.40;;;;;;4926522;29;20163;-47
2022/03/20 11:55:29;;;;;;;29.55;19.25;;;13.40;86.30;;;;;;4924244;29;20076;-46
2022/03/20 11:58:00;;;;;;;30.67;18.63;;;13.40;87.00;;;;;;4924416;29;20047;-46
2022/03/20 12:00:28;;;;;;;31.00;21.02;;;13.40;86.10;;;;;;4929266;29;20030;-49
2022/03/20 12:03:15;;;;;;;31.58;19.42;;;13.30;86.70;;;;;;4929997;29;20558;-48
2022/03/20 12:06:05;;;;;;;25.00;17.05;;;13.40;87.20;;;;;;4926912;29;20032;-44
2022/03/20 12:08:55;;;;;;;31.25;19.15;;;13.40;87.00;;;;;;4927704;29;20384;-47
2022/03/20 12:11:28;;;;;;;24.73;17.65;;;13.50;86.80;;;;;;4926887;29;20047;-45
2022/03/20 12:14:23;;;;;;;28.98;18.30;;;13.50;86.80;;;;;;4926649;29;20028;-48
2022/03/20 12:16:48;;;;;;;21.17;16.92;;;13.40;86.90;;;;;;4926334;29;20031;-47
2022/03/20 12:19:19;;;;;;;32.72;17.88;;;13.50;87.70;;;;;;4926416;29;20020;-45
2022/03/20 12:22:01;;;;;;;26.38;16.40;;;13.50;87.10;;;;;;4927932;29;20394;-48
2022/03/20 12:24:36;;;;;;;23.60;16.70;;;13.50;87.90;;;;;;4917886;29;20031;-47
2022/03/20 12:27:20;;;;;;;42.30;24.95;;;13.70;88.10;;;;;;4914922;29;20016;-43
2022/03/20 12:30:26;;;;;;;25.48;17.05;;;13.80;86.50;;;;;;4918001;29;20028;-44
2022/03/20 12:32:52;;;;;;;;;;;13.80;86.70;;;;;;4918624;29;20119;-42
2022/03/20 12:35:21;;;;;;;26.23;17.45;;;13.80;87.00;;;;;;4918075;29;19962;-44
2022/03/20 12:37:48;;;;;;;26.02;15.57;;;13.90;87.20;;;;;;4917328;29;20107;-45
2022/03/20 12:40:23;;;;;;;22.40;15.38;;;14.10;86.60;;;;;;4917692;29;20020;-47
2022/03/20 12:43:08;;;;;;;26.25;17.67;;;14.10;86.30;;;;;;4918100;29;20040;-41
2022/03/20 12:45:45;;;;;;;24.23;15.37;;;14.00;85.80;;;;;;4917606;29;20032;-50
2022/03/20 12:48:13;;;;;;;25.67;15.10;;;14.00;86.10;;;;;;4917270;29;20044;-44
2022/03/20 12:50:45;;;;;;;20.30;14.27;;;13.90;85.70;;;;;;4916748;29;20114;-45
2022/03/20 12:53:17;;;;;;;25.33;14.93;;;13.90;85.80;;;;;;4915705;29;20099;-45
2022/03/20 12:56:09;;;;;;;23.25;15.35;;;13.90;85.50;;;;;;4916418;29;20115;-48
2022/03/20 12:58:35;;;;;;;22.52;15.55;;;13.80;85.80;;;;;;4915620;29;20135;-45
2022/03/20 13:01:07;;;;;;;20.77;15.30;;;13.80;86.90;;;;;;4915873;29;20056;-47
2022/03/20 13:03:33;;;;;;;23.90;16.60;;;14.00;85.90;;;;;;4915902;29;20076;-47
2022/03/20 13:06:00;;;;;;;27.58;16.30;;;14.00;85.50;;;;;;4915885;29;20420;-51
2022/03/20 13:08:30;;;;;;;23.05;16.17;;;14.00;85.10;;;;;;4915263;29;20539;-44
2022/03/20 13:11:03;;;;;;;25.80;17.25;;;13.90;85.50;;;;;;4915892;29;20032;-46